createdAt,value
2023-01-22T18:41:19.763Z,98497.20
2023-01-22T18:44:50.199Z,98497.80
2023-01-22T18:48:11.267Z,98499.60
2023-01-22T18:51:10.846Z,98494.00
2023-01-22T18:54:13.965Z,98494.20
2023-01-22T18:56:59.044Z,98508.80
2023-01-22T18:59:52.982Z,98516.00
2023-01-22T19:02:47.880Z,98522.80
2023-01-22T19:05:49.838Z,98521.40
2023-01-22T19:09:14.240Z,98528.80
2023-01-22T19:12:11.911Z,98532.40
2023-01-22T19:15:06.474Z,98533.20
2023-01-22T19:18:03.465Z,98534.80
2023-01-22T19:21:09.956Z,98534.00
2023-01-22T19:24:03.857Z,98536.80
2023-01-22T19:27:04.025Z,98540.00
2023-01-22T19:30:07.589Z,98541.60
2023-01-22T19:33:17.070Z,98545.60
2023-01-22T19:36:08.475Z,98545.60
2023-01-22T19:39:17.790Z,98539.00
2023-01-22T19:42:18.555Z,98539.60
2023-01-22T19:45:18.388Z,98532.00
2023-01-22T19:48:08.514Z,98540.00
2023-01-22T19:51:35.199Z,98540.80
2023-01-22T19:54:43.150Z,98548.60
2023-01-22T19:57:36.891Z,98547.60
2023-01-22T20:00:42.389Z,98545.20
2023-01-22T20:03:41.612Z,98542.20
2023-01-22T20:06:46.008Z,98544.60
2023-01-22T20:09:50.292Z,98541.20
2023-01-22T20:12:43.724Z,98538.00
2023-01-22T20:15:39.420Z,98541.20
2023-01-22T20:18:33.508Z,98532.40
2023-01-22T20:21:15.697Z,98533.40
2023-01-22T20:24:25.308Z,98538.00
2023-01-22T20:27:16.958Z,98543.00
2023-01-22T20:30:12.581Z,98542.60
2023-01-22T20:33:07.165Z,98539.80
2023-01-22T20:36:06.750Z,98535.40
2023-01-22T20:39:02.255Z,98534.80
2023-01-22T20:41:45.771Z,98539.00
2023-01-22T20:44:53.185Z,98544.80
2023-01-22T20:47:45.111Z,98541.80
2023-01-22T20:50:28.843Z,98547.00
2023-01-22T20:53:36.823Z,98547.80
2023-01-22T20:56:35.711Z,98546.60
2023-01-22T20:59:25.583Z,98551.40
2023-01-22T21:02:14.977Z,98552.40
2023-01-22T21:05:03.949Z,98554.40
2023-01-22T21:08:01.923Z,98558.40
2023-01-22T21:11:10.222Z,98554.80
2023-01-22T21:13:53.653Z,98553.20
2023-01-22T21:16:36.623Z,98552.20
2023-01-22T21:19:26.088Z,98546.40
2023-01-22T21:22:05.548Z,98549.40
2023-01-22T21:24:50.032Z,98558.40
2023-01-22T21:27:24.751Z,98561.00
2023-01-22T21:30:01.771Z,98562.80
2023-01-22T21:32:51.123Z,98565.40
2023-01-22T21:35:48.559Z,98568.80
2023-01-22T21:38:40.334Z,98566.00
2023-01-22T21:41:33.607Z,98568.00
2023-01-22T21:44:43.919Z,98567.80
2023-01-22T21:47:59.724Z,98568.00
2023-01-22T21:51:09.155Z,98567.80
2023-01-22T21:53:45.217Z,98569.20
2023-01-22T21:56:39.191Z,98562.60
2023-01-22T21:59:36.876Z,98565.60
2023-01-22T22:02:22.801Z,98560.20
2023-01-22T22:05:23.591Z,98559.20
2023-01-22T22:08:13.213Z,98558.40
2023-01-22T22:11:08.009Z,98562.20
2023-01-22T22:14:20.534Z,98559.00
2023-01-22T22:17:21.451Z,98562.20
2023-01-22T22:20:10.975Z,98565.20
2023-01-22T22:23:08.811Z,98567.00
2023-01-22T22:26:02.158Z,98569.40
2023-01-22T22:28:57.825Z,98566.00
2023-01-22T22:31:50.498Z,98565.40
2023-01-22T22:34:51.581Z,98569.60
2023-01-22T22:37:29.071Z,98577.00
2023-01-22T22:40:27.997Z,98576.00
2023-01-22T22:43:19.857Z,98582.20
2023-01-22T22:46:09.990Z,98582.20
2023-01-22T22:49:20.200Z,98588.60
2023-01-22T22:52:13.400Z,98587.20
2023-01-22T22:55:07.833Z,98588.20
2023-01-22T22:57:54.937Z,98582.80
2023-01-22T23:00:53.812Z,98586.60
2023-01-22T23:03:36.843Z,98586.20
2023-01-22T23:06:39.543Z,98584.00
2023-01-22T23:09:39.467Z,98589.80
2023-01-22T23:12:29.929Z,98593.80
2023-01-22T23:15:14.378Z,98593.40
2023-01-22T23:18:08.538Z,98588.40
2023-01-22T23:20:47.914Z,98584.80
2023-01-22T23:23:33.455Z,98583.60
2023-01-22T23:26:12.990Z,98589.40
2023-01-22T23:29:04.131Z,98587.60
2023-01-22T23:31:57.699Z,98590.40
2023-01-22T23:34:35.973Z,98595.60
2023-01-22T23:37:35.091Z,98595.40
2023-01-22T23:40:14.456Z,98593.60
2023-01-22T23:43:16.735Z,98595.80
2023-01-22T23:45:56.323Z,98597.60
2023-01-22T23:48:45.924Z,98599.60
2023-01-22T23:51:34.745Z,98598.20
2023-01-22T23:54:22.705Z,98599.40
2023-01-22T23:57:18.376Z,98599.20
